createdAt,value
2017-09-26T00:02:15.614Z,13.40
2017-09-26T00:04:43.190Z,13.60
2017-09-26T00:07:11.483Z,14.40
2017-09-26T00:09:39.935Z,14.00
2017-09-26T00:12:08.483Z,12.43
2017-09-26T00:14:36.087Z,12.23
2017-09-26T00:17:05.159Z,12.43
2017-09-26T00:19:32.739Z,14.57
2017-09-26T00:22:00.402Z,14.40
2017-09-26T00:24:28.063Z,12.03
2017-09-26T00:26:55.832Z,14.60
2017-09-26T00:29:24.259Z,12.93
2017-09-26T00:31:51.907Z,14.30
2017-09-26T00:34:20.288Z,13.23
2017-09-26T00:36:47.846Z,12.60
2017-09-26T00:39:15.479Z,11.23
2017-09-26T00:41:44.671Z,13.93
2017-09-26T00:44:12.418Z,14.20
2017-09-26T00:46:40.090Z,12.60
2017-09-26T00:49:07.691Z,14.50
2017-09-26T00:51:36.018Z,14.97
2017-09-26T00:54:03.591Z,13.30
2017-09-26T00:56:31.159Z,13.93
2017-09-26T00:58:58.734Z,15.37
2017-09-26T01:01:27.071Z,17.40
2017-09-26T01:03:55.528Z,14.30
2017-09-26T01:06:23.883Z,13.37
2017-09-26T01:08:51.463Z,14.47
2017-09-26T01:11:19.018Z,14.23
2017-09-26T01:13:46.614Z,14.47
2017-09-26T01:16:14.169Z,14.17
2017-09-26T01:18:41.904Z,13.83
2017-09-26T01:21:10.274Z,14.17
2017-09-26T01:23:38.667Z,15.03
2017-09-26T01:26:06.251Z,14.70
2017-09-26T01:28:33.811Z,15.53
2017-09-26T01:31:01.395Z,14.97
2017-09-26T01:33:29.723Z,14.73
2017-09-26T01:35:57.307Z,13.80
2017-09-26T01:38:24.962Z,16.00
2017-09-26T01:41:04.346Z,14.70
2017-09-26T01:43:31.912Z,14.33
2017-09-26T01:46:00.215Z,13.23
2017-09-26T01:48:27.773Z,15.07
2017-09-26T01:50:55.503Z,16.10
2017-09-26T01:53:23.062Z,14.20
2017-09-26T01:55:51.570Z,14.63
2017-09-26T01:58:30.838Z,14.43
2017-09-26T02:01:00.750Z,15.40
2017-09-26T02:03:29.026Z,14.90
2017-09-26T02:05:56.687Z,16.80
2017-09-26T02:08:27.698Z,16.33
2017-09-26T02:10:55.275Z,17.13
2017-09-26T02:13:22.834Z,15.43
2017-09-26T02:15:50.506Z,15.50
2017-09-26T02:18:19.059Z,15.00
2017-09-26T02:20:47.479Z,14.20
2017-09-26T02:23:15.034Z,14.93
2017-09-26T02:25:42.721Z,17.17
2017-09-26T02:28:11.087Z,16.80
2017-09-26T02:30:39.415Z,18.23
2017-09-26T02:33:07.008Z,15.80
2017-09-26T02:35:34.768Z,15.10
2017-09-26T02:38:02.530Z,15.40
2017-09-26T02:40:30.902Z,16.10
2017-09-26T02:43:01.439Z,16.10
2017-09-26T02:45:29.112Z,17.67
2017-09-26T02:47:56.695Z,17.07
2017-09-26T02:50:25.122Z,17.17
2017-09-26T02:52:52.710Z,18.90
2017-09-26T02:55:20.990Z,17.53
2017-09-26T02:57:48.630Z,17.60
2017-09-26T03:00:19.158Z,16.63
2017-09-26T03:02:46.851Z,18.70
2017-09-26T03:05:15.210Z,18.70
2017-09-26T03:07:42.895Z,16.43
2017-09-26T03:10:11.219Z,20.37
2017-09-26T03:12:38.915Z,17.87
2017-09-26T03:15:06.479Z,18.90
2017-09-26T03:17:34.124Z,16.50
2017-09-26T03:20:01.987Z,18.53
2017-09-26T03:22:29.646Z,19.77
2017-09-26T03:24:57.202Z,18.47
2017-09-26T03:27:24.869Z,19.33
2017-09-26T03:29:52.534Z,19.27
2017-09-26T03:32:20.194Z,18.70
2017-09-26T03:34:47.754Z,17.83
2017-09-26T03:37:15.374Z,18.40
2017-09-26T03:39:42.929Z,19.50
2017-09-26T03:42:10.614Z,19.73
2017-09-26T03:44:38.195Z,18.00
2017-09-26T03:47:05.870Z,20.97
2017-09-26T03:49:33.484Z,20.07
2017-09-26T03:52:01.074Z,17.93
2017-09-26T03:54:28.747Z,19.90
2017-09-26T03:56:57.190Z,20.10
2017-09-26T03:59:25.153Z,20.03
2017-09-26T04:01:52.735Z,21.63
2017-09-26T04:04:20.407Z,21.77
2017-09-26T04:06:47.970Z,22.67
2017-09-26T04:09:15.551Z,22.30
2017-09-26T04:11:44.239Z,22.97
2017-09-26T04:14:11.819Z,21.67
2017-09-26T04:16:39.490Z,24.47
2017-09-26T04:19:07.071Z,24.13
2017-09-26T04:21:34.672Z,23.47
2017-09-26T04:24:02.311Z,21.07
2017-09-26T04:26:29.875Z,21.40
2017-09-26T04:28:57.514Z,20.83
2017-09-26T04:31:25.162Z,20.20
2017-09-26T04:33:53.439Z,21.03
2017-09-26T04:36:21.014Z,21.90
2017-09-26T04:38:51.763Z,23.17
2017-09-26T04:41:19.342Z,23.83
2017-09-26T04:43:47.670Z,20.57
2017-09-26T04:46:15.328Z,22.10
2017-09-26T04:48:42.967Z,20.60
2017-09-26T04:51:11.403Z,24.33
2017-09-26T04:53:39.059Z,23.63
2017-09-26T04:56:06.718Z,24.03
2017-09-26T04:58:34.382Z,26.13
2017-09-26T05:01:01.967Z,25.23
2017-09-26T05:03:30.279Z,25.23
2017-09-26T05:05:57.826Z,22.23
2017-09-26T05:08:25.334Z,22.37
2017-09-26T05:10:52.855Z,22.10
2017-09-26T05:13:20.364Z,22.33
2017-09-26T05:15:47.895Z,20.70
2017-09-26T05:18:15.403Z,22.63
2017-09-26T05:20:44.610Z,22.60
2017-09-26T05:23:12.123Z,21.97
2017-09-26T05:25:39.627Z,21.47
2017-09-26T05:28:07.186Z,23.70
2017-09-26T05:30:34.699Z,25.23
2017-09-26T05:33:02.303Z,23.07
2017-09-26T05:35:29.867Z,22.67
2017-09-26T05:37:57.495Z,21.87
2017-09-26T05:40:25.787Z,21.40
2017-09-26T05:42:54.077Z,20.90
2017-09-26T05:45:21.683Z,24.20
2017-09-26T05:47:50.018Z,23.57
2017-09-26T05:50:18.423Z,27.90
2017-09-26T05:52:45.947Z,22.50
2017-09-26T05:55:13.515Z,24.93
2017-09-26T05:57:41.044Z,24.63
2017-09-26T06:00:09.319Z,24.40
2017-09-26T06:02:37.622Z,22.37
2017-09-26T06:05:05.971Z,25.73
2017-09-26T06:07:34.263Z,25.30
2017-09-26T06:10:03.366Z,25.60
2017-09-26T06:12:30.999Z,25.80
2017-09-26T06:14:58.711Z,26.20
2017-09-26T06:17:26.236Z,26.47
2017-09-26T06:19:54.512Z,25.50
2017-09-26T06:22:22.895Z,23.10
2017-09-26T06:24:52.166Z,22.63
2017-09-26T06:27:19.776Z,23.43
2017-09-26T06:29:47.382Z,23.40
2017-09-26T06:32:14.896Z,22.50
2017-09-26T06:34:42.425Z,24.83
2017-09-26T06:37:10.698Z,22.07
2017-09-26T06:39:39.798Z,22.97
2017-09-26T06:42:08.070Z,22.07
2017-09-26T06:44:36.359Z,105.70
2017-09-26T06:47:04.740Z,25.77
2017-09-26T06:49:33.123Z,23.67
2017-09-26T06:52:00.678Z,25.33
2017-09-26T06:54:28.204Z,26.23
2017-09-26T06:56:55.792Z,24.63
2017-09-26T06:59:23.315Z,24.63
2017-09-26T07:01:50.825Z,27.53
2017-09-26T07:04:19.099Z,24.70
2017-09-26T07:06:46.602Z,25.13
2017-09-26T07:09:14.207Z,29.10
2017-09-26T07:11:41.783Z,31.03
2017-09-26T07:14:09.312Z,25.53
2017-09-26T07:16:37.578Z,26.63
2017-09-26T07:19:05.874Z,25.43
2017-09-26T07:21:33.402Z,28.80
2017-09-26T07:24:01.671Z,28.27
2017-09-26T07:26:29.198Z,25.63
2017-09-26T07:28:56.703Z,28.07
2017-09-26T07:31:24.998Z,28.17
2017-09-26T07:33:52.502Z,26.70
2017-09-26T07:36:20.032Z,27.77
2017-09-26T07:38:47.579Z,31.37
2017-09-26T07:41:15.134Z,28.80
2017-09-26T07:43:42.911Z,31.10
2017-09-26T07:46:10.453Z,29.70
2017-09-26T07:48:38.299Z,30.40
2017-09-26T07:51:06.592Z,32.43
2017-09-26T07:53:34.868Z,32.33
2017-09-26T07:56:03.157Z,31.43
2017-09-26T07:58:30.662Z,35.83
2017-09-26T08:00:58.919Z,34.40
2017-09-26T08:03:28.250Z,34.43
2017-09-26T08:05:57.310Z,38.40
2017-09-26T08:08:25.607Z,33.90
2017-09-26T08:10:53.822Z,37.47
2017-09-26T08:13:22.207Z,36.23
2017-09-26T08:15:49.781Z,37.37
2017-09-26T08:18:17.303Z,37.53
2017-09-26T08:20:45.574Z,35.90
2017-09-26T08:23:13.883Z,35.10
2017-09-26T08:25:41.434Z,35.73
2017-09-26T08:28:09.676Z,33.27
2017-09-26T08:30:37.188Z,35.80
2017-09-26T08:33:04.716Z,34.93
2017-09-26T08:35:32.992Z,36.00
2017-09-26T08:38:00.566Z,34.23
2017-09-26T08:40:28.075Z,33.53
2017-09-26T08:42:55.606Z,36.50
2017-09-26T08:45:26.848Z,39.23
2017-09-26T08:47:54.384Z,36.57
2017-09-26T08:50:21.892Z,37.50
2017-09-26T08:52:49.414Z,40.27
2017-09-26T08:55:16.962Z,35.70
2017-09-26T08:57:44.488Z,41.83
2017-09-26T09:00:12.769Z,40.37
2017-09-26T09:02:41.082Z,39.50
2017-09-26T09:05:08.595Z,42.17
2017-09-26T09:07:36.891Z,42.27
2017-09-26T09:10:05.179Z,39.33
2017-09-26T09:12:32.738Z,40.83
2017-09-26T09:15:00.402Z,42.20
2017-09-26T09:17:28.674Z,41.47
2017-09-26T09:19:56.182Z,39.83
2017-09-26T09:22:23.795Z,45.30
2017-09-26T09:24:51.320Z,42.63
2017-09-26T09:27:19.732Z,39.97
2017-09-26T09:29:47.391Z,38.57
2017-09-26T09:32:15.062Z,37.37
2017-09-26T09:34:42.591Z,38.80
2017-09-26T09:37:10.891Z,39.37
2017-09-26T09:39:38.419Z,38.37
2017-09-26T09:42:06.695Z,39.33
2017-09-26T09:44:34.998Z,39.13
2017-09-26T09:47:02.663Z,36.53
2017-09-26T09:49:30.905Z,34.13
2017-09-26T09:51:58.496Z,33.13
2017-09-26T09:54:26.060Z,36.43
2017-09-26T09:56:53.610Z,36.70
2017-09-26T09:59:21.135Z,36.17
2017-09-26T10:01:48.643Z,35.00
2017-09-26T10:04:16.166Z,32.57
2017-09-26T10:06:44.538Z,33.70
2017-09-26T10:09:12.935Z,33.97
2017-09-26T10:11:40.443Z,36.97
2017-09-26T10:14:08.059Z,37.60
2017-09-26T10:16:35.623Z,35.70
2017-09-26T10:19:03.179Z,38.00
2017-09-26T10:21:30.718Z,41.73
2017-09-26T10:23:59.015Z,39.93
2017-09-26T10:26:26.543Z,36.30
2017-09-26T10:28:54.819Z,34.67
2017-09-26T10:31:23.948Z,36.43
2017-09-26T10:33:52.231Z,32.87
2017-09-26T10:36:19.759Z,32.67
2017-09-26T10:38:48.056Z,31.67
2017-09-26T10:41:15.583Z,33.40
2017-09-26T10:43:43.858Z,31.87
2017-09-26T10:46:11.386Z,30.33
2017-09-26T10:48:38.894Z,30.10
2017-09-26T10:51:08.046Z,34.17
2017-09-26T10:53:35.551Z,31.07
2017-09-26T10:56:03.076Z,33.93
2017-09-26T10:58:30.674Z,33.50
2017-09-26T11:00:58.245Z,32.43
2017-09-26T11:03:26.566Z,31.17
2017-09-26T11:05:54.683Z,30.93
2017-09-26T11:08:22.207Z,31.20
2017-09-26T11:10:49.715Z,34.43
2017-09-26T11:13:17.259Z,32.23
2017-09-26T11:15:44.767Z,29.27
2017-09-26T11:18:12.303Z,29.07
2017-09-26T11:20:39.820Z,26.13
2017-09-26T11:23:08.943Z,27.50
2017-09-26T11:25:36.492Z,25.77
2017-09-26T11:28:04.015Z,24.10
2017-09-26T11:30:31.520Z,23.60
2017-09-26T11:32:59.064Z,27.87
2017-09-26T11:35:26.623Z,26.37
2017-09-26T11:37:54.275Z,47.77
2017-09-26T11:40:21.959Z,26.00
2017-09-26T11:42:49.503Z,24.40
2017-09-26T11:45:17.075Z,24.63
2017-09-26T11:47:44.603Z,25.17
2017-09-26T11:50:12.894Z,23.87
2017-09-26T11:52:40.875Z,25.27
2017-09-26T11:55:08.385Z,23.90
2017-09-26T11:57:36.683Z,25.17
2017-09-26T12:00:04.955Z,26.07
2017-09-26T12:02:33.234Z,26.57
2017-09-26T12:05:01.524Z,24.23
2017-09-26T12:07:29.086Z,25.60
2017-09-26T12:09:56.643Z,24.10
2017-09-26T12:12:24.155Z,25.97
2017-09-26T12:14:51.687Z,25.03
2017-09-26T12:17:19.200Z,23.10
2017-09-26T12:19:47.597Z,24.80
2017-09-26T12:22:15.160Z,23.67
2017-09-26T12:24:42.686Z,22.53
2017-09-26T12:27:11.068Z,22.60
2017-09-26T12:29:39.372Z,27.33
2017-09-26T12:32:06.927Z,24.20
2017-09-26T12:34:34.490Z,20.97
2017-09-26T12:37:02.048Z,21.83
2017-09-26T12:39:29.576Z,21.80
2017-09-26T12:41:57.846Z,33.67
2017-09-26T12:44:25.379Z,22.93
2017-09-26T12:46:52.895Z,21.70
2017-09-26T12:49:22.194Z,19.60
2017-09-26T12:51:49.703Z,17.80
2017-09-26T12:54:17.252Z,18.67
2017-09-26T12:56:44.755Z,18.10
2017-09-26T12:59:13.035Z,18.53
2017-09-26T13:01:41.426Z,22.73
2017-09-26T13:04:09.023Z,20.53
2017-09-26T13:06:36.649Z,20.57
2017-09-26T13:09:04.211Z,19.43
2017-09-26T13:11:31.762Z,17.77
2017-09-26T13:14:00.123Z,21.10
2017-09-26T13:16:28.523Z,18.87
2017-09-26T13:18:56.031Z,17.53
2017-09-26T13:21:23.635Z,18.60
2017-09-26T13:23:51.867Z,17.70
2017-09-26T13:26:19.399Z,16.30
2017-09-26T13:28:46.911Z,17.27
2017-09-26T13:31:15.626Z,16.03
2017-09-26T13:33:43.136Z,17.57
2017-09-26T13:36:11.440Z,16.13
2017-09-26T13:38:39.113Z,16.20
2017-09-26T13:41:06.680Z,16.30
2017-09-26T13:43:34.287Z,17.90
2017-09-26T13:46:01.891Z,16.33
2017-09-26T13:48:29.446Z,16.40
2017-09-26T13:50:57.826Z,17.10
2017-09-26T13:53:25.346Z,17.37
2017-09-26T13:55:52.858Z,18.83
2017-09-26T13:58:21.087Z,17.40
2017-09-26T14:00:49.394Z,15.90
2017-09-26T14:03:16.919Z,13.60
2017-09-26T14:05:44.508Z,14.17
2017-09-26T14:08:12.031Z,13.50
2017-09-26T14:10:39.544Z,14.37
2017-09-26T14:13:07.078Z,14.27
2017-09-26T14:15:35.603Z,13.53
2017-09-26T14:18:03.137Z,11.90
2017-09-26T14:20:30.748Z,13.03
2017-09-26T14:22:58.351Z,11.40
2017-09-26T14:25:25.859Z,11.60
2017-09-26T14:27:53.477Z,12.47
2017-09-26T14:30:20.982Z,11.40
2017-09-26T14:32:48.604Z,12.60
2017-09-26T14:35:17.115Z,12.63
2017-09-26T14:37:44.731Z,12.17
2017-09-26T14:40:12.258Z,19.77
2017-09-26T14:42:40.570Z,23.57
2017-09-26T14:45:08.119Z,25.07
2017-09-26T14:47:35.635Z,22.87
2017-09-26T14:50:03.923Z,20.57
2017-09-26T14:52:33.010Z,21.63
2017-09-26T14:55:01.254Z,21.63
2017-09-26T14:57:28.873Z,21.57
2017-09-26T14:59:57.980Z,22.90
2017-09-26T15:02:25.487Z,23.43
2017-09-26T15:04:53.107Z,20.23
2017-09-26T15:07:21.476Z,21.20
2017-09-26T15:09:49.139Z,20.17
2017-09-26T15:12:16.732Z,22.63
2017-09-26T15:14:44.355Z,23.07
2017-09-26T15:17:11.910Z,21.77
2017-09-26T15:19:39.471Z,40.73
2017-09-26T15:22:06.984Z,25.67
2017-09-26T15:24:35.271Z,26.80
2017-09-26T15:27:03.058Z,29.13
2017-09-26T15:29:32.172Z,29.80
2017-09-26T15:31:59.723Z,30.03
2017-09-26T15:34:27.286Z,29.93
2017-09-26T15:36:54.806Z,29.93
2017-09-26T15:39:22.317Z,29.47
2017-09-26T15:41:49.851Z,32.20
2017-09-26T15:44:18.215Z,33.93
2017-09-26T15:46:46.618Z,30.20
2017-09-26T15:49:14.131Z,34.30
2017-09-26T15:51:41.658Z,33.03
2017-09-26T15:54:09.171Z,33.43
2017-09-26T15:56:37.464Z,35.83
2017-09-26T15:59:05.285Z,36.93
2017-09-26T16:01:32.811Z,33.43
2017-09-26T16:04:00.328Z,32.23
2017-09-26T16:06:28.618Z,34.40
2017-09-26T16:08:56.208Z,37.83
2017-09-26T16:11:23.768Z,35.70
2017-09-26T16:13:51.299Z,37.43
2017-09-26T16:16:18.847Z,37.30
2017-09-26T16:18:47.120Z,38.63
2017-09-26T16:21:15.390Z,37.07
2017-09-26T16:23:43.679Z,31.73
2017-09-26T16:26:11.187Z,25.90
2017-09-26T16:28:38.803Z,25.57
2017-09-26T16:31:06.311Z,25.63
2017-09-26T16:33:33.834Z,22.47
2017-09-26T16:36:01.339Z,21.70
2017-09-26T16:38:29.673Z,21.70
2017-09-26T16:40:57.195Z,18.90
2017-09-26T16:43:25.703Z,21.17
2017-09-26T16:45:53.253Z,20.00
2017-09-26T16:48:20.778Z,20.70
2017-09-26T16:50:48.292Z,20.87
2017-09-26T16:53:15.827Z,21.37
2017-09-26T16:55:43.387Z,22.83
2017-09-26T16:58:10.946Z,21.30
2017-09-26T17:00:38.925Z,23.20
2017-09-26T17:03:06.472Z,22.47
2017-09-26T17:05:34.291Z,24.03
2017-09-26T17:08:01.919Z,22.23
2017-09-26T17:10:29.572Z,22.27
2017-09-26T17:12:57.078Z,20.83
2017-09-26T17:15:24.688Z,21.17
2017-09-26T17:17:52.195Z,22.63
2017-09-26T17:20:19.795Z,20.87
2017-09-26T17:22:47.967Z,24.53
2017-09-26T17:25:16.107Z,24.40
2017-09-26T17:27:43.618Z,25.37
2017-09-26T17:30:11.143Z,22.23
2017-09-26T17:32:39.433Z,24.93
2017-09-26T17:35:06.992Z,32.10
2017-09-26T17:37:34.508Z,31.87
2017-09-26T17:40:02.065Z,31.20
2017-09-26T17:42:29.558Z,34.07
2017-09-26T17:44:57.072Z,33.77
2017-09-26T17:47:24.601Z,30.10
2017-09-26T17:49:52.152Z,30.60
2017-09-26T17:52:19.678Z,30.97
2017-09-26T17:54:47.979Z,29.10
2017-09-26T17:57:15.503Z,24.67
2017-09-26T17:59:43.012Z,28.37
2017-09-26T18:02:11.264Z,26.87
2017-09-26T18:04:38.775Z,27.73
2017-09-26T18:07:06.383Z,27.67
2017-09-26T18:09:34.150Z,28.07
2017-09-26T18:12:01.675Z,25.07
2017-09-26T18:14:29.983Z,25.23
2017-09-26T18:16:57.548Z,28.30
2017-09-26T18:19:25.418Z,28.23
2017-09-26T18:21:53.022Z,29.53
2017-09-26T18:24:20.530Z,27.43
2017-09-26T18:26:48.087Z,27.63
2017-09-26T18:29:15.699Z,28.53
2017-09-26T18:31:43.311Z,24.13
2017-09-26T18:34:10.919Z,24.40
2017-09-26T18:36:39.201Z,26.57
2017-09-26T18:39:06.778Z,26.23
2017-09-26T18:41:35.103Z,26.77
2017-09-26T18:44:02.760Z,27.57
2017-09-26T18:46:30.314Z,26.30
2017-09-26T18:48:57.854Z,26.17
2017-09-26T18:51:26.188Z,24.57
2017-09-26T18:53:53.766Z,25.07
2017-09-26T18:56:22.094Z,22.87
2017-09-26T18:58:49.618Z,24.47
2017-09-26T19:01:17.942Z,23.33
2017-09-26T19:03:45.519Z,23.93
2017-09-26T19:06:13.035Z,23.40
2017-09-26T19:08:40.643Z,22.80
2017-09-26T19:11:08.215Z,23.33
2017-09-26T19:13:36.562Z,25.47
2017-09-26T19:16:04.132Z,25.33
2017-09-26T19:18:31.716Z,25.37
2017-09-26T19:21:00.050Z,21.73
2017-09-26T19:23:27.614Z,22.47
2017-09-26T19:25:55.954Z,20.60
2017-09-26T19:28:23.514Z,19.67
2017-09-26T19:30:51.554Z,21.57
2017-09-26T19:33:19.874Z,20.53
2017-09-26T19:35:47.408Z,22.17
2017-09-26T19:38:15.747Z,21.47
2017-09-26T19:40:43.327Z,20.43
2017-09-26T19:43:11.660Z,19.80
2017-09-26T19:45:39.238Z,20.33
2017-09-26T19:48:06.804Z,20.70
2017-09-26T19:50:34.412Z,20.00
2017-09-26T19:53:01.975Z,24.00
2017-09-26T19:55:29.528Z,24.30
2017-09-26T19:57:57.092Z,24.83
2017-09-26T20:00:24.666Z,23.77
2017-09-26T20:02:52.259Z,22.40
2017-09-26T20:05:19.922Z,25.57
2017-09-26T20:07:47.582Z,22.13
2017-09-26T20:10:15.209Z,22.07
2017-09-26T20:12:42.807Z,22.50
2017-09-26T20:15:10.470Z,22.47
2017-09-26T20:17:38.054Z,21.97
2017-09-26T20:20:05.576Z,23.27
2017-09-26T20:22:33.162Z,24.93
2017-09-26T20:25:02.193Z,21.60
2017-09-26T20:27:29.771Z,21.40
2017-09-26T20:29:57.277Z,20.27
2017-09-26T20:32:25.580Z,20.53
2017-09-26T20:34:53.927Z,18.03
2017-09-26T20:37:22.219Z,18.30
2017-09-26T20:39:50.501Z,18.80
2017-09-26T20:42:18.068Z,17.50
2017-09-26T20:44:45.676Z,17.93
2017-09-26T20:47:13.250Z,19.17
2017-09-26T20:49:40.814Z,19.50
2017-09-26T20:52:09.112Z,20.37
2017-09-26T20:54:36.666Z,20.80
2017-09-26T20:57:04.951Z,19.60
2017-09-26T20:59:32.463Z,18.50
2017-09-26T21:02:00.071Z,18.57
2017-09-26T21:04:27.575Z,18.67
2017-09-26T21:06:55.079Z,18.43
2017-09-26T21:09:22.650Z,17.33
2017-09-26T21:11:50.159Z,16.80
2017-09-26T21:14:18.452Z,17.57
2017-09-26T21:16:46.754Z,16.40
2017-09-26T21:19:14.327Z,18.53
2017-09-26T21:21:41.879Z,18.20
2017-09-26T21:24:09.431Z,18.90
2017-09-26T21:26:36.943Z,19.13
2017-09-26T21:29:04.547Z,16.97
2017-09-26T21:31:32.123Z,18.23
2017-09-26T21:33:59.647Z,16.20
2017-09-26T21:36:27.920Z,17.17
2017-09-26T21:38:56.323Z,17.93
2017-09-26T21:41:23.883Z,23.20
2017-09-26T21:43:51.407Z,35.77
2017-09-26T21:46:20.138Z,17.33
2017-09-26T21:48:47.659Z,17.23
2017-09-26T21:51:16.770Z,18.50
2017-09-26T21:53:45.210Z,17.37
2017-09-26T21:56:12.818Z,16.80
2017-09-26T21:58:40.379Z,20.50
2017-09-26T22:01:08.504Z,17.80
2017-09-26T22:03:36.084Z,18.40
2017-09-26T22:06:04.383Z,17.63
2017-09-26T22:08:31.943Z,16.67
2017-09-26T22:10:59.466Z,15.40
2017-09-26T22:13:26.980Z,17.13
2017-09-26T22:15:55.327Z,19.30
2017-09-26T22:18:23.686Z,17.30
2017-09-26T22:20:52.095Z,18.77
2017-09-26T22:23:19.605Z,15.87
2017-09-26T22:25:47.131Z,17.27
2017-09-26T22:28:14.671Z,19.33
2017-09-26T22:30:42.226Z,18.10
2017-09-26T22:33:09.822Z,18.47
2017-09-26T22:35:37.455Z,18.17
2017-09-26T22:38:05.723Z,15.43
2017-09-26T22:40:33.231Z,16.97
2017-09-26T22:43:00.854Z,17.70
2017-09-26T22:45:28.983Z,16.40
2017-09-26T22:47:56.571Z,18.03
2017-09-26T22:50:24.173Z,16.80
2017-09-26T22:52:51.797Z,18.23
2017-09-26T22:55:19.303Z,15.40
2017-09-26T22:57:46.823Z,16.17
2017-09-26T23:00:14.336Z,18.40
2017-09-26T23:02:42.648Z,16.33
2017-09-26T23:05:10.507Z,15.80
2017-09-26T23:07:38.172Z,17.23
2017-09-26T23:10:06.447Z,15.53
2017-09-26T23:12:34.006Z,15.63
2017-09-26T23:15:01.975Z,15.63
2017-09-26T23:17:29.504Z,17.30
2017-09-26T23:19:57.011Z,16.57
2017-09-26T23:22:24.551Z,15.03
2017-09-26T23:24:52.111Z,16.93
2017-09-26T23:27:19.634Z,17.53
2017-09-26T23:29:47.334Z,16.03
2017-09-26T23:32:14.992Z,16.00
2017-09-26T23:34:43.270Z,19.23
2017-09-26T23:37:10.774Z,17.47
2017-09-26T23:39:38.383Z,16.40
2017-09-26T23:42:05.943Z,16.47
2017-09-26T23:44:33.566Z,17.40
2017-09-26T23:47:02.015Z,16.07
2017-09-26T23:49:29.556Z,19.57
2017-09-26T23:51:57.063Z,19.37
2017-09-26T23:54:24.587Z,17.90
2017-09-26T23:56:52.114Z,17.13
2017-09-26T23:59:19.683Z,16.73
